world map with HLA marked

HLA - Airport

This information may not be accurate or current and is not valid for navigation or flight planning. No warranty of fitness for any purpose is made or implied.

flag of Gautengflag of South Africa

Donate via PayPal

Additional information is available on the NEW Great Circle Mapper

Location
City:  Johannesburg, Gauteng, South Africa
Name:Lanseria International Airport
ICAO / IATA:FALA / HLA

Details
Type:Airport (Aerodrome, Airfield)
Use:Public/Civil
Latitude:25°56'19"S (-25.938513)
Longitude:27°55'34"E (27.926133)
Datum:WGS 1984
Elevation:4517 ft (1377 m)
Runways:2
Longest:10000 × 75 ft (3048 × 23 m)

Time
Timezone:UTC+2 (DST+4)
Local Time:

Weather
METAR:FALA  181800Z 23018KT 9999 -SHRA FEW050TCU 18/14 Q1022 NOSIG
TAF:FALA  (expired)

Related Locations
Nearby:
Farthest:HNM: 12002 mi / 19315 km
Hana, Maui, HI, US

Find:

   beyond  
but within

Other Information
Maps:
Links:
Sources:

  


 


Great Circle Mapper   Great Circle Mapper
Great Circle Mapper FAQ   Great Circle Mapper FAQ
  Karl's Home Page
KLSē   KLSē Home
   GC on Facebook
Airlines of the World   Airlines of the World
Donate via PayPal


Copyright © 2004-2018, Karl L. Swartz. All rights reserved.
All trademarks mentioned herein belong to their respective owners.

Please see credits for attribution and copyright information.

Karl Swartz <karl@kls2.com>
  Powered by FreeBSD
Valid HTML 4.01!
Labeled with ICRA
hCard Microformat
Geo Microformat